createdAt,value
2022-11-30T00:00:15.710Z,3.04
2022-11-30T00:01:17.541Z,3.03
2022-11-30T00:02:19.509Z,2.99
2022-11-30T00:03:21.570Z,2.96
2022-11-30T00:04:23.456Z,2.95
2022-11-30T00:05:25.488Z,2.91
2022-11-30T00:06:27.466Z,2.90
2022-11-30T00:07:29.400Z,2.89
2022-11-30T00:08:31.284Z,2.87
2022-11-30T00:09:33.305Z,2.89
2022-11-30T00:10:35.069Z,2.90
2022-11-30T00:11:37.079Z,2.91
2022-11-30T00:12:42.398Z,2.93
2022-11-30T00:13:44.549Z,2.91
2022-11-30T00:14:46.983Z,2.91
2022-11-30T00:15:49.146Z,2.95
2022-11-30T00:16:51.145Z,2.97
2022-11-30T00:17:56.707Z,2.98
2022-11-30T00:18:58.632Z,2.95
2022-11-30T00:20:00.510Z,2.88
2022-11-30T00:21:03.095Z,2.84
2022-11-30T00:22:04.975Z,2.80
2022-11-30T00:23:10.229Z,2.79
2022-11-30T00:24:12.080Z,2.80
2022-11-30T00:25:13.938Z,2.83
2022-11-30T00:26:17.805Z,2.85
2022-11-30T00:27:19.840Z,2.85
2022-11-30T00:28:21.719Z,2.87
2022-11-30T00:29:23.602Z,2.86
2022-11-30T00:30:25.464Z,2.87
2022-11-30T00:31:27.353Z,2.88
2022-11-30T00:32:29.253Z,2.91
2022-11-30T00:33:34.601Z,2.93
2022-11-30T00:34:36.456Z,2.95
2022-11-30T00:35:38.317Z,2.96
2022-11-30T00:36:40.164Z,2.96
2022-11-30T00:37:42.103Z,2.94
2022-11-30T00:38:44.284Z,2.95
2022-11-30T00:39:46.217Z,2.96
2022-11-30T00:40:48.050Z,2.97
2022-11-30T00:41:49.915Z,2.97
2022-11-30T00:42:51.793Z,2.96
2022-11-30T00:43:53.688Z,2.95
2022-11-30T00:44:55.510Z,2.94
2022-11-30T00:45:57.621Z,2.95
2022-11-30T00:46:59.548Z,2.95
2022-11-30T00:48:01.383Z,2.95
2022-11-30T00:49:03.378Z,2.95
2022-11-30T00:50:05.483Z,2.96
2022-11-30T00:51:08.123Z,2.85
2022-11-30T00:52:09.929Z,2.73
2022-11-30T00:53:11.913Z,2.67
2022-11-30T00:54:14.219Z,2.65
2022-11-30T00:55:16.076Z,2.69
2022-11-30T00:56:17.989Z,2.71
2022-11-30T00:57:19.852Z,2.75
2022-11-30T00:58:21.835Z,2.79
2022-11-30T00:59:23.736Z,2.82
2022-11-30T01:00:25.705Z,2.87
2022-11-30T01:01:27.700Z,2.89
2022-11-30T01:02:29.581Z,2.86
2022-11-30T01:03:31.476Z,2.76
2022-11-30T01:04:33.452Z,2.71
2022-11-30T01:05:35.967Z,2.73
2022-11-30T01:06:38.478Z,2.72
2022-11-30T01:07:40.475Z,2.72
2022-11-30T01:08:42.321Z,2.75
2022-11-30T01:09:44.205Z,2.79
2022-11-30T01:10:47.969Z,2.84
2022-11-30T01:11:50.393Z,2.79
2022-11-30T01:12:52.316Z,2.67
2022-11-30T01:13:55.463Z,2.63
2022-11-30T01:14:57.366Z,2.64
2022-11-30T01:15:59.359Z,2.70
2022-11-30T01:17:01.355Z,2.73
2022-11-30T01:18:03.264Z,2.76
2022-11-30T01:19:05.201Z,2.78
2022-11-30T01:20:08.315Z,2.82
2022-11-30T01:21:11.155Z,2.84
2022-11-30T01:22:12.998Z,2.86
2022-11-30T01:23:14.931Z,2.87
2022-11-30T01:24:16.815Z,2.86
2022-11-30T01:25:18.763Z,2.89
2022-11-30T01:26:20.751Z,2.90
2022-11-30T01:27:22.609Z,2.90
2022-11-30T01:28:24.495Z,2.94
2022-11-30T01:29:26.401Z,2.94
2022-11-30T01:30:28.331Z,2.96
2022-11-30T01:31:30.124Z,2.93
2022-11-30T01:32:32.014Z,2.83
2022-11-30T01:33:34.077Z,2.73
2022-11-30T01:34:35.857Z,2.69
2022-11-30T01:35:37.751Z,2.63
2022-11-30T01:36:39.673Z,2.63
2022-11-30T01:37:41.546Z,2.62
2022-11-30T01:38:47.784Z,2.63
2022-11-30T01:39:49.691Z,2.65
2022-11-30T01:40:51.688Z,2.69
2022-11-30T01:41:55.075Z,2.70
2022-11-30T01:42:56.929Z,2.73
2022-11-30T01:44:20.243Z,2.72
2022-11-30T01:45:22.226Z,2.72
2022-11-30T01:46:38.974Z,2.70
2022-11-30T01:47:52.933Z,2.70
2022-11-30T01:49:10.062Z,2.69
2022-11-30T01:50:15.464Z,2.62
2022-11-30T01:51:17.295Z,2.59
2022-11-30T01:52:20.962Z,2.58
2022-11-30T01:53:24.417Z,2.58
2022-11-30T01:54:32.558Z,2.62
2022-11-30T01:55:36.590Z,2.67
2022-11-30T01:56:41.236Z,2.70
2022-11-30T01:57:47.314Z,2.72
2022-11-30T01:58:49.334Z,2.73
2022-11-30T01:59:52.407Z,2.74
2022-11-30T02:00:54.344Z,2.78
2022-11-30T02:01:56.863Z,2.81
2022-11-30T02:03:18.829Z,2.83
2022-11-30T02:04:38.950Z,2.83
2022-11-30T02:05:41.970Z,2.87
2022-11-30T02:06:44.516Z,2.89
2022-11-30T02:07:46.473Z,2.91
2022-11-30T02:08:48.440Z,2.92
2022-11-30T02:09:50.310Z,2.91
2022-11-30T02:10:53.796Z,2.91
2022-11-30T02:11:57.062Z,2.94
2022-11-30T02:13:19.468Z,2.95
2022-11-30T02:14:24.358Z,2.95
2022-11-30T02:15:29.800Z,2.95
2022-11-30T02:16:53.670Z,2.94
2022-11-30T02:17:58.403Z,2.95
2022-11-30T02:19:18.137Z,2.95
2022-11-30T02:20:38.625Z,2.92
2022-11-30T02:21:46.642Z,2.84
2022-11-30T02:22:48.430Z,2.77
2022-11-30T02:23:56.312Z,2.78
2022-11-30T02:25:07.736Z,2.78
2022-11-30T02:26:09.572Z,2.75
2022-11-30T02:27:14.360Z,2.74
2022-11-30T02:28:19.194Z,2.72
2022-11-30T02:29:23.892Z,2.72
2022-11-30T02:30:26.017Z,2.71
2022-11-30T02:31:31.687Z,2.72
2022-11-30T02:32:40.561Z,2.77
2022-11-30T02:33:43.318Z,2.81
2022-11-30T02:34:47.570Z,2.84
2022-11-30T02:35:54.855Z,2.79
2022-11-30T02:36:58.713Z,2.78
2022-11-30T02:38:01.415Z,2.80
2022-11-30T02:39:03.436Z,2.84
2022-11-30T02:40:13.987Z,2.87
2022-11-30T02:41:15.926Z,2.90
2022-11-30T02:42:17.780Z,2.91
2022-11-30T02:43:21.480Z,2.91
2022-11-30T02:44:24.830Z,2.91
2022-11-30T02:45:41.124Z,2.91
2022-11-30T02:46:42.976Z,2.92
2022-11-30T02:47:48.832Z,2.95
2022-11-30T02:48:57.056Z,2.94
2022-11-30T02:50:01.280Z,2.90
2022-11-30T02:51:05.127Z,2.90
2022-11-30T02:52:08.495Z,2.79
2022-11-30T02:53:10.524Z,2.76
2022-11-30T02:54:12.748Z,2.76
2022-11-30T02:55:16.380Z,2.74
2022-11-30T02:56:19.056Z,2.77
2022-11-30T02:57:20.848Z,2.80
2022-11-30T02:58:22.852Z,2.82
2022-11-30T02:59:24.803Z,2.83
2022-11-30T03:00:26.745Z,2.87
2022-11-30T03:01:28.670Z,2.91
2022-11-30T03:02:30.600Z,2.93
2022-11-30T03:03:32.644Z,2.95
2022-11-30T03:04:34.518Z,2.95
2022-11-30T03:05:36.340Z,2.95
2022-11-30T03:06:38.249Z,2.95
2022-11-30T03:07:40.082Z,2.94
2022-11-30T03:08:42.075Z,2.97
2022-11-30T03:09:43.997Z,2.99
2022-11-30T03:10:45.843Z,2.98
2022-11-30T03:11:47.816Z,2.99
2022-11-30T03:12:49.729Z,3.00
2022-11-30T03:13:51.784Z,3.00
2022-11-30T03:14:53.734Z,3.05
2022-11-30T03:15:55.637Z,3.06
2022-11-30T03:16:57.797Z,3.06
2022-11-30T03:18:02.288Z,2.93
2022-11-30T03:19:04.210Z,2.79
2022-11-30T03:20:06.533Z,2.79
2022-11-30T03:21:08.935Z,2.80
2022-11-30T03:22:10.767Z,2.85
2022-11-30T03:23:12.666Z,2.88
2022-11-30T03:24:14.615Z,2.90
2022-11-30T03:25:16.447Z,2.93
2022-11-30T03:26:18.313Z,2.95
2022-11-30T03:27:20.184Z,3.00
2022-11-30T03:28:22.115Z,3.03
2022-11-30T03:29:23.995Z,3.06
2022-11-30T03:30:25.839Z,3.10
2022-11-30T03:31:27.836Z,3.09
2022-11-30T03:32:31.315Z,3.07
2022-11-30T03:33:33.220Z,3.05
2022-11-30T03:34:35.164Z,3.02
2022-11-30T03:35:37.101Z,2.97
2022-11-30T03:36:38.993Z,2.95
2022-11-30T03:37:40.839Z,2.97
2022-11-30T03:38:42.678Z,2.97
2022-11-30T03:39:44.720Z,2.98
2022-11-30T03:40:46.495Z,3.00
2022-11-30T03:41:48.422Z,3.03
2022-11-30T03:42:50.315Z,3.06
2022-11-30T03:43:52.213Z,3.09
2022-11-30T03:44:54.205Z,3.09
2022-11-30T03:45:56.155Z,2.99
2022-11-30T03:46:57.991Z,2.95
2022-11-30T03:47:59.801Z,2.95
2022-11-30T03:49:01.757Z,2.95
2022-11-30T03:50:03.932Z,2.97
2022-11-30T03:51:05.924Z,2.93
2022-11-30T03:52:07.784Z,2.89
2022-11-30T03:53:09.598Z,2.88
2022-11-30T03:54:11.516Z,2.88
2022-11-30T03:55:13.462Z,2.91
2022-11-30T03:56:15.982Z,2.99
2022-11-30T03:57:17.868Z,2.97
2022-11-30T03:58:19.778Z,2.97
2022-11-30T03:59:21.575Z,2.99
2022-11-30T04:00:23.443Z,2.95
2022-11-30T04:01:25.432Z,2.91
2022-11-30T04:02:27.318Z,2.94
2022-11-30T04:03:29.660Z,2.95
2022-11-30T04:04:31.538Z,2.97
2022-11-30T04:05:33.414Z,3.02
2022-11-30T04:06:35.443Z,3.04
2022-11-30T04:07:37.341Z,3.01
2022-11-30T04:08:39.650Z,2.99
2022-11-30T04:09:41.503Z,2.96
2022-11-30T04:10:43.463Z,2.91
2022-11-30T04:11:45.297Z,2.95
2022-11-30T04:12:47.213Z,2.94
2022-11-30T04:13:49.081Z,2.98
2022-11-30T04:14:50.993Z,3.03
2022-11-30T04:15:53.906Z,3.07
2022-11-30T04:16:55.862Z,3.08
2022-11-30T04:17:57.843Z,3.08
2022-11-30T04:18:59.762Z,3.10
2022-11-30T04:20:01.571Z,3.09
2022-11-30T04:21:04.035Z,3.11
2022-11-30T04:22:05.941Z,3.14
2022-11-30T04:23:07.998Z,3.15
2022-11-30T04:24:09.911Z,3.15
2022-11-30T04:25:11.812Z,3.14
2022-11-30T04:26:15.717Z,3.13
2022-11-30T04:27:17.681Z,3.07
2022-11-30T04:28:19.969Z,3.03
2022-11-30T04:29:21.816Z,3.06
2022-11-30T04:30:23.682Z,3.07
2022-11-30T04:31:25.752Z,3.08
2022-11-30T04:32:27.734Z,3.05
2022-11-30T04:33:30.548Z,3.04
2022-11-30T04:34:32.510Z,3.00
2022-11-30T04:35:34.596Z,3.00
2022-11-30T04:36:36.548Z,3.02
2022-11-30T04:37:38.410Z,3.03
2022-11-30T04:38:40.239Z,3.06
2022-11-30T04:39:42.102Z,3.06
2022-11-30T04:40:45.054Z,3.06
2022-11-30T04:41:46.907Z,3.06
2022-11-30T04:42:48.746Z,3.03
2022-11-30T04:43:50.696Z,2.96
2022-11-30T04:44:52.623Z,2.91
2022-11-30T04:45:54.460Z,2.90
2022-11-30T04:46:56.375Z,2.94
2022-11-30T04:47:58.443Z,2.98
2022-11-30T04:49:00.319Z,3.03
2022-11-30T04:50:02.326Z,3.02
2022-11-30T04:51:06.272Z,3.05
2022-11-30T04:52:08.265Z,3.02
2022-11-30T04:53:10.689Z,3.00
2022-11-30T04:54:12.615Z,2.99
2022-11-30T04:55:14.574Z,2.96
2022-11-30T04:56:16.526Z,2.93
2022-11-30T04:57:18.395Z,2.92
2022-11-30T04:58:20.290Z,2.87
2022-11-30T04:59:22.235Z,2.87
2022-11-30T05:00:24.191Z,2.84
2022-11-30T05:01:26.093Z,2.79
2022-11-30T05:02:29.825Z,2.67
2022-11-30T05:03:31.737Z,2.62
2022-11-30T05:04:33.694Z,2.64
2022-11-30T05:05:35.790Z,2.65
2022-11-30T05:06:37.615Z,2.58
2022-11-30T05:07:40.844Z,2.60
2022-11-30T05:08:42.718Z,2.62
2022-11-30T05:09:44.656Z,2.65
2022-11-30T05:10:51.637Z,2.66
2022-11-30T05:11:54.877Z,2.58
2022-11-30T05:12:57.504Z,2.55
2022-11-30T05:13:59.425Z,2.48
2022-11-30T05:15:01.265Z,2.35
2022-11-30T05:16:03.221Z,2.31
2022-11-30T05:17:05.156Z,2.33
2022-11-30T05:18:07.026Z,2.33
2022-11-30T05:19:08.932Z,2.35
2022-11-30T05:20:11.115Z,2.33
2022-11-30T05:21:13.126Z,2.31
2022-11-30T05:22:14.958Z,2.29
2022-11-30T05:23:17.560Z,2.32
2022-11-30T05:24:19.420Z,2.30
2022-11-30T05:25:21.340Z,2.23
2022-11-30T05:26:23.238Z,2.16
2022-11-30T05:27:25.102Z,2.20
2022-11-30T05:28:27.011Z,2.27
2022-11-30T05:29:28.880Z,2.27
2022-11-30T05:30:30.741Z,2.23
2022-11-30T05:31:33.252Z,2.23
2022-11-30T05:32:35.546Z,2.28
2022-11-30T05:33:37.424Z,2.25
2022-11-30T05:34:50.133Z,2.19
2022-11-30T05:35:52.757Z,2.24
2022-11-30T05:36:54.672Z,2.20
2022-11-30T05:37:56.607Z,2.17
2022-11-30T05:38:58.526Z,2.18
2022-11-30T05:40:00.475Z,2.17
2022-11-30T05:41:02.771Z,2.18
2022-11-30T05:42:04.661Z,2.15
2022-11-30T05:43:06.695Z,2.12
2022-11-30T05:44:08.904Z,2.05
2022-11-30T05:45:11.090Z,1.97
2022-11-30T05:46:13.066Z,1.98
2022-11-30T05:47:15.133Z,2.06
2022-11-30T05:48:16.976Z,2.09
2022-11-30T05:49:18.894Z,2.08
2022-11-30T05:50:21.343Z,2.00
2022-11-30T05:51:23.908Z,2.00
2022-11-30T05:52:25.845Z,2.04
2022-11-30T05:53:27.745Z,1.96
2022-11-30T05:54:29.652Z,1.98
2022-11-30T05:55:32.523Z,2.00
2022-11-30T05:56:34.372Z,2.06
2022-11-30T05:57:37.520Z,2.02
2022-11-30T05:58:39.464Z,2.01
2022-11-30T05:59:41.411Z,2.00
2022-11-30T06:00:43.310Z,2.04
2022-11-30T06:01:45.361Z,2.09
2022-11-30T06:02:47.552Z,2.00
2022-11-30T06:03:49.502Z,2.03
2022-11-30T06:04:51.364Z,2.10
2022-11-30T06:05:53.325Z,2.14
2022-11-30T06:06:58.192Z,2.18
2022-11-30T06:08:01.008Z,2.22
2022-11-30T06:09:03.066Z,2.17
2022-11-30T06:10:05.219Z,2.11
2022-11-30T06:11:07.456Z,2.08
2022-11-30T06:12:09.425Z,2.12
2022-11-30T06:13:11.853Z,2.12
2022-11-30T06:14:13.644Z,2.18
2022-11-30T06:15:15.483Z,2.26
2022-11-30T06:16:17.403Z,2.32
2022-11-30T06:17:19.303Z,2.37
2022-11-30T06:18:21.250Z,2.40
2022-11-30T06:19:23.055Z,2.44
2022-11-30T06:20:24.939Z,2.48
2022-11-30T06:21:26.873Z,2.46
2022-11-30T06:22:28.822Z,2.47
2022-11-30T06:23:31.086Z,2.48
2022-11-30T06:24:32.980Z,2.49
2022-11-30T06:25:35.115Z,2.48
2022-11-30T06:26:37.018Z,2.50
2022-11-30T06:27:38.885Z,2.48
2022-11-30T06:28:45.338Z,2.47
2022-11-30T06:29:49.712Z,2.44
2022-11-30T06:30:51.757Z,2.45
2022-11-30T06:31:53.643Z,2.47
2022-11-30T06:32:55.576Z,2.49
2022-11-30T06:33:58.109Z,2.46
2022-11-30T06:34:59.923Z,2.46
2022-11-30T06:36:02.158Z,2.44
2022-11-30T06:37:03.992Z,2.44
2022-11-30T06:38:05.871Z,2.44
2022-11-30T06:39:09.506Z,2.44
2022-11-30T06:40:12.427Z,2.46
2022-11-30T06:41:14.466Z,2.44
2022-11-30T06:42:16.412Z,2.44
2022-11-30T06:43:19.133Z,2.45
2022-11-30T06:44:21.565Z,2.47
2022-11-30T06:45:23.570Z,2.48
2022-11-30T06:46:27.269Z,2.46
2022-11-30T06:47:29.126Z,2.44
2022-11-30T06:48:31.099Z,2.45
2022-11-30T06:49:33.017Z,2.47
2022-11-30T06:50:34.875Z,2.46
2022-11-30T06:51:38.037Z,2.43
2022-11-30T06:52:39.905Z,2.43
2022-11-30T06:53:43.127Z,2.43
2022-11-30T06:54:45.447Z,2.42
2022-11-30T06:55:47.632Z,2.41
2022-11-30T06:56:49.437Z,2.38
2022-11-30T06:57:51.348Z,2.34
2022-11-30T06:58:54.648Z,2.27
2022-11-30T06:59:57.017Z,2.23
2022-11-30T07:00:58.863Z,2.22
2022-11-30T07:02:07.520Z,2.24
2022-11-30T07:03:11.308Z,2.23
2022-11-30T07:04:13.300Z,2.25
2022-11-30T07:05:15.225Z,2.28
2022-11-30T07:06:17.084Z,2.32
2022-11-30T07:07:19.053Z,2.34
2022-11-30T07:08:20.964Z,2.36
2022-11-30T07:09:22.884Z,2.37
2022-11-30T07:10:24.849Z,2.36
2022-11-30T07:11:26.825Z,2.39
2022-11-30T07:12:28.686Z,2.41
2022-11-30T07:13:30.527Z,2.42
2022-11-30T07:14:32.341Z,2.43
2022-11-30T07:15:34.260Z,2.45
2022-11-30T07:16:36.213Z,2.46
2022-11-30T07:17:38.116Z,2.48
2022-11-30T07:18:40.094Z,2.49
2022-11-30T07:19:41.997Z,2.49
2022-11-30T07:20:43.970Z,2.44
2022-11-30T07:21:45.792Z,2.44
2022-11-30T07:22:47.761Z,2.45
2022-11-30T07:24:08.153Z,2.45
2022-11-30T07:25:28.866Z,2.44
2022-11-30T07:26:30.956Z,2.46
2022-11-30T07:27:32.893Z,2.50
2022-11-30T07:28:36.514Z,2.40
2022-11-30T07:29:38.417Z,2.28
2022-11-30T07:30:40.256Z,2.25
2022-11-30T07:31:42.204Z,2.24
2022-11-30T07:32:44.080Z,2.25
2022-11-30T07:33:46.502Z,2.28
2022-11-30T07:34:48.799Z,2.32
2022-11-30T07:35:53.119Z,2.35
2022-11-30T07:36:55.120Z,2.34
2022-11-30T07:37:57.114Z,2.33
2022-11-30T07:38:59.020Z,2.36
2022-11-30T07:40:00.882Z,2.43
2022-11-30T07:41:02.849Z,2.38
2022-11-30T07:42:04.811Z,2.40
2022-11-30T07:43:06.661Z,2.45
2022-11-30T07:44:09.244Z,2.50
2022-11-30T07:45:11.367Z,2.49
2022-11-30T07:46:14.478Z,2.51
2022-11-30T07:47:17.053Z,2.53
2022-11-30T07:48:19.053Z,2.59
2022-11-30T07:49:20.927Z,2.60
2022-11-30T07:50:22.724Z,2.64
2022-11-30T07:51:24.622Z,2.60
2022-11-30T07:52:26.537Z,2.59
2022-11-30T07:53:28.712Z,2.56
2022-11-30T07:54:30.720Z,2.54
2022-11-30T07:55:37.290Z,2.49
2022-11-30T07:56:39.168Z,2.46
2022-11-30T07:57:41.015Z,2.42
2022-11-30T07:58:43.264Z,2.38
2022-11-30T07:59:45.570Z,2.41
2022-11-30T08:00:47.777Z,2.40
2022-11-30T08:01:49.906Z,2.42
2022-11-30T08:02:52.309Z,2.47
2022-11-30T08:03:54.088Z,2.50
2022-11-30T08:04:58.667Z,2.49
2022-11-30T08:06:04.507Z,2.49
2022-11-30T08:07:06.370Z,2.53
2022-11-30T08:08:08.273Z,2.57
2022-11-30T08:09:15.250Z,2.56
2022-11-30T08:10:21.263Z,2.59
2022-11-30T08:11:25.639Z,2.59
2022-11-30T08:12:27.499Z,2.58
2022-11-30T08:13:29.529Z,2.56
2022-11-30T08:14:37.653Z,2.54
2022-11-30T08:15:52.550Z,2.48
2022-11-30T08:16:54.554Z,2.47
2022-11-30T08:17:56.438Z,2.49
2022-11-30T08:18:58.877Z,2.50
2022-11-30T08:20:00.762Z,2.53
2022-11-30T08:21:04.257Z,2.55
2022-11-30T08:22:06.188Z,2.59
2022-11-30T08:23:08.050Z,2.63
2022-11-30T08:24:11.992Z,2.58
2022-11-30T08:25:13.980Z,2.59
2022-11-30T08:26:17.499Z,2.63
2022-11-30T08:27:20.187Z,2.65
2022-11-30T08:28:22.358Z,2.66
2022-11-30T08:29:24.262Z,2.59
2022-11-30T08:30:27.951Z,2.59
2022-11-30T08:31:32.736Z,2.61
2022-11-30T08:32:34.673Z,2.64
2022-11-30T08:33:37.146Z,2.67
2022-11-30T08:34:39.029Z,2.66
2022-11-30T08:35:40.915Z,2.62
2022-11-30T08:36:46.937Z,2.62
2022-11-30T08:37:52.232Z,2.67
2022-11-30T08:38:54.306Z,2.62
2022-11-30T08:39:56.204Z,2.55
2022-11-30T08:40:58.503Z,2.55
2022-11-30T08:42:00.892Z,2.59
2022-11-30T08:43:02.822Z,2.55
2022-11-30T08:44:04.714Z,2.59
2022-11-30T08:45:06.917Z,2.60
2022-11-30T08:46:27.921Z,2.55
2022-11-30T08:47:31.741Z,2.49
2022-11-30T08:48:34.068Z,2.54
2022-11-30T08:49:35.964Z,2.57
2022-11-30T08:50:37.940Z,2.60
2022-11-30T08:52:08.889Z,2.60
2022-11-30T08:53:06.208Z,2.65
2022-11-30T08:54:08.460Z,2.64
2022-11-30T08:55:10.351Z,2.72
2022-11-30T08:56:13.796Z,2.80
2022-11-30T08:57:17.750Z,2.81
2022-11-30T08:58:19.682Z,2.77
2022-11-30T08:59:21.714Z,2.71
2022-11-30T09:00:23.652Z,2.66
2022-11-30T09:01:28.442Z,2.65
2022-11-30T09:02:33.322Z,2.76
2022-11-30T09:03:35.251Z,2.77
2022-11-30T09:04:37.079Z,2.81
2022-11-30T09:05:38.986Z,2.82
2022-11-30T09:06:42.261Z,2.79
2022-11-30T09:07:44.149Z,2.76
2022-11-30T09:08:46.929Z,2.82
2022-11-30T09:09:49.007Z,2.87
2022-11-30T09:10:52.373Z,2.92
2022-11-30T09:11:54.300Z,2.94
2022-11-30T09:12:56.194Z,2.91
2022-11-30T09:14:00.138Z,2.88
2022-11-30T09:15:02.281Z,2.90
2022-11-30T09:16:04.683Z,2.93
2022-11-30T09:17:06.635Z,2.97
2022-11-30T09:18:08.465Z,3.01
2022-11-30T09:19:10.329Z,3.02
2022-11-30T09:20:12.508Z,3.06
2022-11-30T09:21:17.348Z,3.08
2022-11-30T09:22:19.828Z,3.11
2022-11-30T09:23:21.592Z,3.04
2022-11-30T09:24:23.489Z,3.07
2022-11-30T09:25:25.566Z,3.12
2022-11-30T09:26:27.539Z,3.11
2022-11-30T09:27:31.658Z,3.03
2022-11-30T09:28:33.909Z,3.01
2022-11-30T09:29:36.758Z,3.06
2022-11-30T09:30:38.691Z,3.12
2022-11-30T09:31:40.547Z,3.13
2022-11-30T09:32:42.503Z,3.07
2022-11-30T09:33:44.868Z,3.05
2022-11-30T09:34:47.106Z,3.09
2022-11-30T09:35:56.730Z,3.14
2022-11-30T09:36:58.625Z,3.17
2022-11-30T09:38:00.564Z,3.22
2022-11-30T09:39:02.435Z,3.23
2022-11-30T09:40:04.555Z,3.28
2022-11-30T09:41:11.764Z,3.31
2022-11-30T09:42:21.055Z,3.37
2022-11-30T09:43:22.939Z,3.32
2022-11-30T09:44:27.880Z,3.22
2022-11-30T09:45:31.599Z,3.21
2022-11-30T09:46:51.955Z,3.29
2022-11-30T09:48:02.904Z,3.27
2022-11-30T09:49:09.368Z,3.25
2022-11-30T09:50:14.293Z,3.16
2022-11-30T09:51:36.415Z,3.13
2022-11-30T09:52:41.809Z,3.22
2022-11-30T09:53:45.479Z,3.31
2022-11-30T09:54:48.554Z,3.39
2022-11-30T09:55:51.938Z,3.46
2022-11-30T09:56:53.754Z,3.51
2022-11-30T09:57:58.884Z,3.55
2022-11-30T09:59:05.054Z,3.64
2022-11-30T10:00:15.271Z,3.67
2022-11-30T10:01:18.881Z,3.73
2022-11-30T10:02:22.877Z,3.77
2022-11-30T10:03:25.047Z,3.80
2022-11-30T10:04:28.209Z,3.83
2022-11-30T10:05:36.096Z,3.75
2022-11-30T10:06:46.582Z,3.72
2022-11-30T10:08:07.371Z,3.73
2022-11-30T10:09:15.305Z,3.77
2022-11-30T10:10:36.422Z,3.77
2022-11-30T10:11:38.300Z,3.78
2022-11-30T10:12:45.359Z,3.78
2022-11-30T10:13:47.142Z,3.74
2022-11-30T10:15:12.077Z,3.73
2022-11-30T10:16:30.075Z,3.70
2022-11-30T10:17:41.238Z,3.59
2022-11-30T10:18:53.329Z,3.50
2022-11-30T10:19:55.202Z,3.49
2022-11-30T10:21:15.750Z,3.50
2022-11-30T10:22:17.621Z,3.59
2022-11-30T10:23:30.695Z,3.67
2022-11-30T10:24:41.922Z,3.73
2022-11-30T10:25:58.144Z,3.72
2022-11-30T10:27:04.193Z,3.61
2022-11-30T10:28:24.405Z,3.64
2022-11-30T10:29:31.938Z,3.67
2022-11-30T10:30:35.950Z,3.68
2022-11-30T10:31:38.843Z,3.68
2022-11-30T10:32:42.125Z,3.69
2022-11-30T10:33:48.711Z,3.72
2022-11-30T10:34:55.037Z,3.71
2022-11-30T10:35:59.267Z,3.77
2022-11-30T10:37:17.525Z,3.71
2022-11-30T10:38:19.323Z,3.62
2022-11-30T10:39:25.005Z,3.63
2022-11-30T10:40:34.795Z,3.66
2022-11-30T10:41:41.051Z,3.71
2022-11-30T10:43:01.740Z,3.66
2022-11-30T10:44:03.662Z,3.57
2022-11-30T10:45:13.554Z,3.57
2022-11-30T10:46:20.249Z,3.66
2022-11-30T10:47:27.504Z,3.72
2022-11-30T10:48:34.987Z,3.70
2022-11-30T10:49:38.969Z,3.66
2022-11-30T10:50:41.015Z,3.68
2022-11-30T10:51:45.890Z,3.76
2022-11-30T10:52:55.235Z,3.81
2022-11-30T10:53:58.352Z,3.86
2022-11-30T10:55:04.858Z,3.89
2022-11-30T10:56:10.527Z,3.93
2022-11-30T10:57:14.872Z,3.85
2022-11-30T10:58:22.584Z,3.78
2022-11-30T10:59:34.840Z,3.75
2022-11-30T11:00:36.798Z,3.81
2022-11-30T11:01:39.778Z,3.80
2022-11-30T11:02:49.234Z,3.78
2022-11-30T11:04:07.059Z,3.69
2022-11-30T11:05:10.586Z,3.71
2022-11-30T11:06:24.207Z,3.72
2022-11-30T11:07:26.227Z,3.71
2022-11-30T11:08:28.702Z,3.76
2022-11-30T11:09:30.719Z,3.81
2022-11-30T11:10:37.360Z,3.87
2022-11-30T11:11:39.668Z,3.93
2022-11-30T11:12:46.952Z,4.01
2022-11-30T11:13:48.795Z,4.04
2022-11-30T11:15:07.788Z,4.00
2022-11-30T11:16:12.137Z,3.91
2022-11-30T11:17:19.793Z,3.86
2022-11-30T11:18:26.548Z,3.87
2022-11-30T11:19:35.845Z,3.93
2022-11-30T11:20:42.838Z,3.86
2022-11-30T11:21:49.193Z,3.83
2022-11-30T11:22:51.043Z,3.75
2022-11-30T11:23:57.207Z,3.77
2022-11-30T11:25:11.892Z,3.79
2022-11-30T11:26:20.097Z,3.86
2022-11-30T11:27:21.949Z,3.92
2022-11-30T11:28:25.632Z,3.98
2022-11-30T11:29:32.883Z,4.04
2022-11-30T11:30:35.870Z,4.12
2022-11-30T11:31:47.672Z,4.16
2022-11-30T11:33:09.977Z,4.17
2022-11-30T11:34:32.098Z,4.08
2022-11-30T11:35:37.144Z,4.16
2022-11-30T11:36:39.039Z,4.14
2022-11-30T11:37:51.263Z,4.17
2022-11-30T11:38:53.212Z,4.18
2022-11-30T11:39:56.433Z,4.18
2022-11-30T11:41:06.626Z,4.24
2022-11-30T11:42:19.155Z,4.29
2022-11-30T11:43:25.009Z,4.32
2022-11-30T11:44:28.354Z,4.32
2022-11-30T11:45:33.560Z,4.33
2022-11-30T11:46:38.078Z,4.38
2022-11-30T11:47:40.973Z,4.40
2022-11-30T11:48:56.598Z,4.43
2022-11-30T11:50:06.286Z,4.46
2022-11-30T11:51:09.551Z,4.49
2022-11-30T11:52:11.408Z,4.52
2022-11-30T11:53:16.034Z,4.56
2022-11-30T11:54:28.994Z,4.58
2022-11-30T11:55:30.931Z,4.62
2022-11-30T11:56:34.847Z,4.63
2022-11-30T11:57:40.506Z,4.66
2022-11-30T11:58:42.476Z,4.70
2022-11-30T11:59:47.300Z,4.74
2022-11-30T12:00:50.987Z,4.74
2022-11-30T12:01:59.617Z,4.76
2022-11-30T12:03:14.625Z,4.79
2022-11-30T12:04:35.119Z,4.85
2022-11-30T12:05:38.614Z,4.87
2022-11-30T12:06:42.118Z,4.89
2022-11-30T12:08:02.356Z,4.94
2022-11-30T12:09:08.140Z,4.98
2022-11-30T12:10:50.468Z,5.00
2022-11-30T12:11:45.488Z,4.92
2022-11-30T12:12:51.994Z,4.92
2022-11-30T12:13:56.468Z,4.91
2022-11-30T12:14:58.496Z,4.94
2022-11-30T12:16:12.549Z,4.93
2022-11-30T12:17:29.844Z,4.95
2022-11-30T12:18:40.019Z,5.03
2022-11-30T12:20:04.336Z,5.06
2022-11-30T12:21:13.341Z,5.08
2022-11-30T12:22:23.289Z,4.99
2022-11-30T12:23:25.092Z,4.91
2022-11-30T12:24:52.123Z,4.90
2022-11-30T12:25:53.960Z,4.96
2022-11-30T12:26:55.766Z,5.01
2022-11-30T12:28:03.991Z,5.09
2022-11-30T12:29:05.842Z,5.14
2022-11-30T12:30:13.729Z,5.15
2022-11-30T12:31:17.543Z,5.19
2022-11-30T12:32:19.547Z,5.12
2022-11-30T12:33:39.188Z,5.09
2022-11-30T12:34:56.301Z,5.16
2022-11-30T12:36:06.401Z,5.21
2022-11-30T12:37:22.658Z,5.20
2022-11-30T12:38:43.459Z,5.23
2022-11-30T12:40:05.550Z,5.25
2022-11-30T12:41:29.925Z,5.28
2022-11-30T12:42:42.606Z,5.31
2022-11-30T12:43:53.351Z,5.27
2022-11-30T12:45:04.350Z,5.23
2022-11-30T12:46:26.334Z,5.26
2022-11-30T12:47:40.486Z,5.29
2022-11-30T12:48:52.185Z,5.33
2022-11-30T12:49:54.153Z,5.32
2022-11-30T12:51:02.003Z,5.30
2022-11-30T12:52:15.098Z,5.34
2022-11-30T12:53:20.938Z,5.37
2022-11-30T12:54:25.607Z,5.40
2022-11-30T12:55:27.848Z,5.41
2022-11-30T12:56:29.643Z,5.41
2022-11-30T12:57:51.687Z,5.43
2022-11-30T12:59:05.415Z,5.46
2022-11-30T13:00:07.570Z,5.40
2022-11-30T13:01:28.152Z,5.43
2022-11-30T13:02:48.827Z,5.39
2022-11-30T13:03:56.862Z,5.43
2022-11-30T13:05:08.625Z,5.45
2022-11-30T13:06:13.540Z,5.43
2022-11-30T13:07:21.509Z,5.40
2022-11-30T13:08:29.013Z,5.36
2022-11-30T13:09:34.065Z,5.39
2022-11-30T13:10:44.975Z,5.39
2022-11-30T13:11:49.842Z,5.40
2022-11-30T13:12:53.278Z,5.43
2022-11-30T13:13:57.629Z,5.45
2022-11-30T13:15:01.035Z,5.44
2022-11-30T13:16:05.367Z,5.43
2022-11-30T13:17:08.429Z,5.44
2022-11-30T13:18:16.467Z,5.40
2022-11-30T13:19:28.521Z,5.37
2022-11-30T13:20:44.330Z,5.34
2022-11-30T13:21:50.283Z,5.34
2022-11-30T13:23:01.125Z,5.32
2022-11-30T13:24:15.431Z,5.33
2022-11-30T13:26:10.102Z,5.34
2022-11-30T13:27:06.436Z,5.36
2022-11-30T13:28:26.482Z,5.36
2022-11-30T13:29:45.126Z,5.35
2022-11-30T13:30:53.024Z,5.37
2022-11-30T13:31:57.664Z,5.37
2022-11-30T13:33:19.554Z,5.37
2022-11-30T13:34:24.525Z,5.33
2022-11-30T13:35:26.417Z,5.33
2022-11-30T13:36:34.092Z,5.33
2022-11-30T13:37:36.043Z,5.31
2022-11-30T13:38:38.421Z,5.33
2022-11-30T13:39:50.838Z,5.31
2022-11-30T13:40:54.166Z,5.29
2022-11-30T13:42:01.855Z,5.30
2022-11-30T13:43:03.717Z,5.30
2022-11-30T13:44:06.232Z,5.31
2022-11-30T13:45:14.060Z,5.28
2022-11-30T13:46:19.749Z,5.29
2022-11-30T13:47:32.335Z,5.31
2022-11-30T13:48:37.947Z,5.33
2022-11-30T13:49:39.937Z,5.33
2022-11-30T13:50:41.889Z,5.33
2022-11-30T13:51:43.826Z,5.34
2022-11-30T13:53:00.769Z,5.33
2022-11-30T13:54:27.604Z,5.30
2022-11-30T13:55:36.343Z,5.27
2022-11-30T13:56:38.218Z,5.25
2022-11-30T13:57:41.208Z,5.24
2022-11-30T13:59:02.970Z,5.22
2022-11-30T14:00:28.037Z,5.24
2022-11-30T14:01:30.293Z,5.25
2022-11-30T14:02:36.715Z,5.26
2022-11-30T14:03:39.545Z,5.27
2022-11-30T14:04:47.995Z,5.28
2022-11-30T14:05:50.749Z,5.28
2022-11-30T14:06:55.701Z,5.28
2022-11-30T14:08:00.746Z,5.26
2022-11-30T14:09:02.680Z,5.24
2022-11-30T14:10:04.906Z,5.21
2022-11-30T14:11:25.255Z,5.13
2022-11-30T14:12:37.595Z,5.08
2022-11-30T14:13:39.592Z,5.09
2022-11-30T14:14:45.873Z,5.12
2022-11-30T14:15:48.152Z,5.12
2022-11-30T14:16:50.227Z,5.12
2022-11-30T14:17:55.937Z,5.10
2022-11-30T14:18:58.154Z,5.11
2022-11-30T14:20:09.459Z,5.13
2022-11-30T14:21:20.178Z,5.10